createdAt,value
2022-12-18T00:01:38.808Z,101955.16
2022-12-18T00:04:09.214Z,101957.94
2022-12-18T00:06:37.040Z,101959.09
2022-12-18T00:09:04.644Z,101961.16
2022-12-18T00:11:33.083Z,101969.28
2022-12-18T00:14:00.996Z,101969.72
2022-12-18T00:16:31.008Z,101979.22
2022-12-18T00:19:00.668Z,101979.97
2022-12-18T00:21:29.723Z,101980.16
2022-12-18T00:23:58.052Z,101988.41
2022-12-18T00:26:28.051Z,101984.19
2022-12-18T00:29:00.116Z,101988.75
2022-12-18T00:31:28.208Z,101995.78
2022-12-18T00:33:57.128Z,101994.72
2022-12-18T00:36:27.298Z,102000.09
2022-12-18T00:38:56.827Z,102001.44
2022-12-18T00:41:43.856Z,102006.28
2022-12-18T00:44:14.606Z,102011.88
2022-12-18T00:46:43.495Z,102019.47
2022-12-18T00:49:15.734Z,102033.44
2022-12-18T00:51:43.526Z,102030.00
2022-12-18T00:54:12.795Z,102026.94
2022-12-18T00:56:48.273Z,102031.13
2022-12-18T00:59:17.978Z,102036.03
2022-12-18T01:01:46.488Z,102034.97
2022-12-18T01:04:14.937Z,102038.62
2022-12-18T01:06:46.348Z,102044.50
2022-12-18T01:09:14.145Z,102041.75
2022-12-18T01:11:41.901Z,102043.37
2022-12-18T01:14:11.024Z,102048.22
2022-12-18T01:16:38.735Z,102044.09
2022-12-18T01:19:06.528Z,102049.28
2022-12-18T01:21:35.090Z,102051.53
2022-12-18T01:24:05.299Z,102054.91
2022-12-18T01:26:33.096Z,102058.62
2022-12-18T01:29:00.985Z,102064.31
2022-12-18T01:31:34.180Z,102066.03
2022-12-18T01:34:04.927Z,102063.78
2022-12-18T01:36:35.661Z,102072.00
2022-12-18T01:39:07.342Z,102070.78
2022-12-18T01:41:54.330Z,102076.41
2022-12-18T01:44:59.416Z,102080.91
2022-12-18T01:47:35.552Z,102093.22
2022-12-18T01:50:20.791Z,102097.03
2022-12-18T01:52:52.599Z,102094.22
2022-12-18T01:55:23.312Z,102096.91
2022-12-18T01:57:55.205Z,102092.38
2022-12-18T02:00:24.708Z,102097.91
2022-12-18T02:02:54.041Z,102099.72
2022-12-18T02:05:30.488Z,102103.25
2022-12-18T02:08:31.242Z,102102.22
2022-12-18T02:11:11.307Z,102106.00
2022-12-18T02:13:46.876Z,102109.78
2022-12-18T02:16:30.535Z,102111.75
2022-12-18T02:19:03.090Z,102119.66
2022-12-18T02:21:42.883Z,102119.44
2022-12-18T02:24:35.395Z,102122.25
2022-12-18T02:27:07.631Z,102125.84
2022-12-18T02:29:41.520Z,102133.22
2022-12-18T02:32:17.857Z,102132.84
2022-12-18T02:34:47.292Z,102143.69
2022-12-18T02:37:19.115Z,102142.53
2022-12-18T02:39:50.091Z,102148.72
2022-12-18T02:42:19.091Z,102150.16
2022-12-18T02:44:50.290Z,102145.09
2022-12-18T02:47:22.925Z,102161.44
2022-12-18T02:50:14.628Z,102158.56
2022-12-18T02:52:47.087Z,102156.44
2022-12-18T02:56:06.002Z,102158.28
2022-12-18T02:58:52.820Z,102163.19
2022-12-18T03:01:28.286Z,102172.28
2022-12-18T03:04:30.875Z,102173.66
2022-12-18T03:07:03.857Z,102176.16
2022-12-18T03:09:42.185Z,102177.75
2022-12-18T03:12:36.359Z,102175.19
2022-12-18T03:15:17.221Z,102170.34
2022-12-18T03:17:56.160Z,102172.72
2022-12-18T03:20:31.328Z,102177.78
2022-12-18T03:23:03.505Z,102182.00
2022-12-18T03:25:32.264Z,102186.47
2022-12-18T03:28:03.198Z,102197.91
2022-12-18T03:30:34.552Z,102202.22
2022-12-18T03:33:14.378Z,102203.78
2022-12-18T03:35:43.982Z,102213.56
2022-12-18T03:38:12.822Z,102213.31
2022-12-18T03:41:18.145Z,102210.25
2022-12-18T03:43:52.128Z,102206.25
2022-12-18T03:46:40.049Z,102213.78
2022-12-18T03:49:14.911Z,102217.84
2022-12-18T03:51:42.774Z,102216.37
2022-12-18T03:54:12.500Z,102222.19
2022-12-18T03:56:45.297Z,102230.34
2022-12-18T03:59:17.077Z,102229.25
2022-12-18T04:01:48.857Z,102230.09
2022-12-18T04:04:19.989Z,102239.75
2022-12-18T04:06:49.497Z,102237.47
2022-12-18T04:09:19.343Z,102238.47
2022-12-18T04:11:48.149Z,102240.88
2022-12-18T04:14:18.212Z,102244.69
2022-12-18T04:16:47.180Z,102245.31
2022-12-18T04:19:15.412Z,102249.50
2022-12-18T04:21:43.721Z,102254.31
2022-12-18T04:24:11.872Z,102251.81
2022-12-18T04:26:40.314Z,102270.31
2022-12-18T04:29:10.250Z,102268.56
2022-12-18T04:31:38.357Z,102279.81
2022-12-18T04:34:06.146Z,102284.97
2022-12-18T04:36:35.254Z,102289.94
2022-12-18T04:39:03.672Z,102295.94
2022-12-18T04:41:31.561Z,102305.00
2022-12-18T04:43:59.368Z,102301.63
2022-12-18T04:46:27.295Z,102302.31
2022-12-18T04:48:54.875Z,102299.81
2022-12-18T04:51:26.464Z,102311.06
2022-12-18T04:53:55.229Z,102310.81
2022-12-18T04:56:23.260Z,102319.84
2022-12-18T04:58:50.915Z,102324.72
2022-12-18T05:01:19.733Z,102330.53
2022-12-18T05:03:47.570Z,102327.31
2022-12-18T05:06:15.361Z,102335.16
2022-12-18T05:08:43.272Z,102333.59
2022-12-18T05:11:15.072Z,102341.00
2022-12-18T05:13:44.652Z,102339.72
2022-12-18T05:16:13.865Z,102352.31
2022-12-18T05:18:41.769Z,102355.63
2022-12-18T05:21:09.803Z,102352.31
2022-12-18T05:23:38.135Z,102353.75
2022-12-18T05:26:07.425Z,102352.81
2022-12-18T05:28:36.844Z,102356.41
2022-12-18T05:31:05.390Z,102362.22
2022-12-18T05:33:35.576Z,102372.31
2022-12-18T05:36:06.561Z,102378.16
2022-12-18T05:38:36.007Z,102376.69
2022-12-18T05:41:06.087Z,102390.34
2022-12-18T05:43:35.812Z,102391.31
2022-12-18T05:46:14.035Z,102390.84
2022-12-18T05:48:43.160Z,102395.91
2022-12-18T05:51:16.182Z,102405.59
2022-12-18T05:53:44.415Z,102403.50
2022-12-18T05:56:15.834Z,102406.28
2022-12-18T05:58:43.472Z,102406.97
2022-12-18T06:01:18.408Z,102406.47
2022-12-18T06:03:47.166Z,102409.16
2022-12-18T06:06:15.820Z,102410.41
2022-12-18T06:08:46.384Z,102417.47
2022-12-18T06:11:19.258Z,102422.50
2022-12-18T06:13:47.696Z,102417.16
2022-12-18T06:16:15.690Z,102418.59
2022-12-18T06:18:43.357Z,102422.28
2022-12-18T06:21:11.024Z,102425.91
2022-12-18T06:23:39.466Z,102424.66
2022-12-18T06:26:10.751Z,102419.00
2022-12-18T06:28:38.438Z,102428.31
2022-12-18T06:31:07.202Z,102430.47
2022-12-18T06:33:35.493Z,102436.31
2022-12-18T06:36:14.009Z,102437.13
2022-12-18T06:38:44.306Z,102435.69
2022-12-18T06:41:14.644Z,102438.91
2022-12-18T06:43:43.343Z,102437.94
2022-12-18T06:46:11.970Z,102440.41
2022-12-18T06:48:40.310Z,102446.19
2022-12-18T06:51:08.248Z,102459.59
2022-12-18T06:53:35.841Z,102471.53
2022-12-18T06:56:09.835Z,102464.56
2022-12-18T06:58:39.977Z,102467.81
2022-12-18T07:01:10.187Z,102482.47
2022-12-18T07:03:40.433Z,102482.44
2022-12-18T07:06:15.586Z,102493.03
2022-12-18T07:08:43.669Z,102494.91
2022-12-18T07:11:12.071Z,102503.66
2022-12-18T07:13:40.121Z,102506.62
2022-12-18T07:16:24.763Z,102510.81
2022-12-18T07:18:56.006Z,102518.41
2022-12-18T07:21:25.371Z,102525.50
2022-12-18T07:23:53.320Z,102525.34
2022-12-18T07:26:22.598Z,102536.28
2022-12-18T07:28:51.261Z,102526.28
2022-12-18T07:31:22.090Z,102542.50
2022-12-18T07:33:51.203Z,102541.84
2022-12-18T07:36:19.694Z,102550.31
2022-12-18T07:38:50.883Z,102559.63
2022-12-18T07:41:19.793Z,102553.34
2022-12-18T07:43:47.688Z,102556.38
2022-12-18T07:46:16.678Z,102557.59
2022-12-18T07:48:45.542Z,102559.56
2022-12-18T07:51:17.923Z,102567.75
2022-12-18T07:53:49.537Z,102572.00
2022-12-18T07:56:29.962Z,102579.34
2022-12-18T07:59:00.152Z,102585.06
2022-12-18T08:01:28.464Z,102590.34
2022-12-18T08:03:56.902Z,102590.91
2022-12-18T08:06:24.957Z,102610.25
2022-12-18T08:08:56.843Z,102611.22
2022-12-18T08:11:26.849Z,102608.47
2022-12-18T08:13:54.757Z,102613.16
2022-12-18T08:16:23.008Z,102610.38
2022-12-18T08:18:53.448Z,102610.56
2022-12-18T08:21:24.467Z,102607.84
2022-12-18T08:23:54.623Z,102618.00
2022-12-18T08:26:23.370Z,102616.00
2022-12-18T08:28:51.687Z,102616.09
2022-12-18T08:31:20.138Z,102630.81
2022-12-18T08:33:53.293Z,102632.66
2022-12-18T08:36:22.214Z,102634.63
2022-12-18T08:38:49.836Z,102632.50
2022-12-18T08:41:19.115Z,102645.12
2022-12-18T08:44:16.314Z,102636.16
2022-12-18T08:46:45.004Z,102643.16
2022-12-18T08:49:13.860Z,102648.62
2022-12-18T08:51:41.508Z,102659.53
2022-12-18T08:54:14.927Z,102655.16
2022-12-18T08:56:42.795Z,102659.84
2022-12-18T08:59:15.786Z,102664.25
2022-12-18T09:01:47.789Z,102667.31
2022-12-18T09:04:15.388Z,102669.53
2022-12-18T09:06:42.958Z,102669.22
2022-12-18T09:09:11.554Z,102670.47
2022-12-18T09:11:39.341Z,102675.81
2022-12-18T09:14:07.019Z,102664.81
2022-12-18T09:16:36.137Z,102668.69
2022-12-18T09:19:05.613Z,102678.13
2022-12-18T09:21:37.142Z,102673.78
2022-12-18T09:24:08.797Z,102674.53
2022-12-18T09:26:36.897Z,102672.53
2022-12-18T09:29:05.756Z,102674.31
2022-12-18T09:31:34.257Z,102675.22
2022-12-18T09:34:01.896Z,102678.31
2022-12-18T09:36:29.680Z,102677.56
2022-12-18T09:38:57.190Z,102679.38
2022-12-18T09:41:40.176Z,102675.31
2022-12-18T09:44:29.290Z,102667.94
2022-12-18T09:46:56.820Z,102671.13
2022-12-18T09:49:29.841Z,102671.31
2022-12-18T09:52:10.838Z,102668.09
2022-12-18T09:54:42.845Z,102671.50
2022-12-18T09:57:32.986Z,102677.59
2022-12-18T10:00:20.140Z,102672.94
2022-12-18T10:02:49.033Z,102680.47
2022-12-18T10:05:32.333Z,102676.84
2022-12-18T10:08:14.843Z,102683.28
2022-12-18T10:11:41.810Z,102679.84
2022-12-18T10:14:36.957Z,102684.41
2022-12-18T10:17:27.559Z,102673.53
2022-12-18T10:20:02.223Z,102670.78
2022-12-18T10:22:35.611Z,102672.47
2022-12-18T10:25:15.496Z,102666.47
2022-12-18T10:27:43.110Z,102667.78
2022-12-18T10:30:21.956Z,102659.91
2022-12-18T10:32:49.830Z,102656.66
2022-12-18T10:35:27.792Z,102652.28
2022-12-18T10:38:04.524Z,102658.72
2022-12-18T10:40:33.843Z,102648.16
2022-12-18T10:43:06.794Z,102659.88
2022-12-18T10:45:34.755Z,102647.81
2022-12-18T10:48:04.350Z,102645.75
2022-12-18T10:51:09.761Z,102652.16
2022-12-18T10:53:31.799Z,102650.28
2022-12-18T10:56:04.588Z,102641.56
2022-12-18T10:58:37.908Z,102640.63
2022-12-18T11:01:10.496Z,102641.91
2022-12-18T11:04:02.688Z,102653.41
2022-12-18T11:06:33.882Z,102640.63
2022-12-18T11:09:19.841Z,102638.12
2022-12-18T11:11:56.326Z,102637.13
2022-12-18T11:14:31.796Z,102640.63
2022-12-18T11:20:00.925Z,102667.47
2022-12-18T11:22:31.882Z,102668.72
2022-12-18T11:27:58.015Z,102665.69
2022-12-18T11:30:32.992Z,102668.03
2022-12-18T11:33:23.052Z,102678.88
2022-12-18T11:36:03.759Z,102675.06
2022-12-18T11:38:40.355Z,102668.75
2022-12-18T11:42:08.446Z,102659.56
2022-12-18T11:44:54.485Z,102659.66
2022-12-18T11:47:34.391Z,102656.31
2022-12-18T11:50:04.358Z,102655.66
2022-12-18T11:52:40.073Z,102657.44
2022-12-18T11:55:36.577Z,102663.84
2022-12-18T11:58:31.127Z,102657.25
2022-12-18T12:01:15.453Z,102660.19
2022-12-18T12:03:58.341Z,102659.28
2022-12-18T12:06:50.597Z,102653.97
2022-12-18T12:09:28.237Z,102656.00
2022-12-18T12:12:07.835Z,102662.66
2022-12-18T12:15:07.011Z,102652.59
2022-12-18T12:17:51.424Z,102664.31
2022-12-18T12:20:22.443Z,102663.25
2022-12-18T12:23:06.927Z,102654.88
2022-12-18T12:25:55.003Z,102648.13
2022-12-18T12:29:09.225Z,102651.72
2022-12-18T12:31:41.426Z,102641.81
2022-12-18T12:34:20.282Z,102653.56
2022-12-18T12:36:51.008Z,102655.59
2022-12-18T12:39:24.221Z,102656.09
2022-12-18T12:42:11.352Z,102656.91
2022-12-18T12:44:48.999Z,102652.94
2022-12-18T12:47:29.479Z,102641.16
2022-12-18T12:50:00.581Z,102646.63
2022-12-18T12:52:36.500Z,102654.56
2022-12-18T12:55:11.617Z,102654.53
2022-12-18T12:57:49.565Z,102664.56
2022-12-18T13:00:20.379Z,102652.31
2022-12-18T13:02:52.811Z,102663.44
2022-12-18T13:05:38.973Z,102657.13
2022-12-18T13:08:09.835Z,102665.66
2022-12-18T13:10:41.598Z,102671.97
2022-12-18T13:13:17.222Z,102674.56
2022-12-18T13:16:06.690Z,102684.59
2022-12-18T13:18:36.256Z,102688.28
2022-12-18T13:21:18.988Z,102686.00
2022-12-18T13:23:46.974Z,102692.81
2022-12-18T13:26:19.123Z,102688.75
2022-12-18T13:28:55.912Z,102691.66
2022-12-18T13:31:42.274Z,102687.97
2022-12-18T13:34:26.731Z,102694.72
2022-12-18T13:37:19.007Z,102711.13
2022-12-18T13:39:47.230Z,102711.84
2022-12-18T13:42:34.881Z,102712.00
2022-12-18T13:45:03.605Z,102724.94
2022-12-18T13:47:38.485Z,102722.66
2022-12-18T13:50:36.442Z,102733.00
2022-12-18T13:53:05.962Z,102741.22
2022-12-18T13:55:34.607Z,102738.31
2022-12-18T13:58:08.202Z,102738.00
2022-12-18T14:00:36.890Z,102745.06
2022-12-18T14:03:22.725Z,102741.19
2022-12-18T14:05:56.873Z,102745.75
2022-12-18T14:08:34.024Z,102749.88
2022-12-18T14:11:04.517Z,102758.78
2022-12-18T14:13:43.429Z,102755.72
2022-12-18T14:16:15.590Z,102759.03
2022-12-18T14:18:52.758Z,102763.56
2022-12-18T14:21:24.806Z,102767.94
2022-12-18T14:24:20.256Z,102765.75
2022-12-18T14:26:50.474Z,102770.56
2022-12-18T14:29:30.911Z,102776.69
2022-12-18T14:32:14.952Z,102778.34
2022-12-18T14:35:09.562Z,102776.44
2022-12-18T14:37:37.211Z,102774.72
2022-12-18T14:40:14.201Z,102786.78
2022-12-18T14:42:41.756Z,102772.41
2022-12-18T14:45:43.503Z,102772.16
2022-12-18T14:48:23.271Z,102776.72
2022-12-18T14:51:01.247Z,102782.69
2022-12-18T14:53:49.141Z,102787.22
2022-12-18T14:56:25.057Z,102791.94
2022-12-18T14:58:56.678Z,102788.75
2022-12-18T15:01:33.186Z,102786.28
2022-12-18T15:04:03.244Z,102789.66
2022-12-18T15:06:40.884Z,102793.28
2022-12-18T15:09:25.981Z,102787.88
2022-12-18T15:12:00.230Z,102798.44
2022-12-18T15:14:30.926Z,102797.97
2022-12-18T15:17:00.621Z,102803.25
2022-12-18T15:19:37.239Z,102806.56
2022-12-18T15:22:18.573Z,102811.19
2022-12-18T15:24:46.351Z,102805.75
2022-12-18T15:27:39.281Z,102799.66
2022-12-18T15:30:09.956Z,102804.59
2022-12-18T15:32:40.557Z,102805.34
2022-12-18T15:35:20.157Z,102818.03
2022-12-18T15:37:48.911Z,102822.44
2022-12-18T15:40:20.011Z,102824.94
2022-12-18T15:43:06.753Z,102821.00
2022-12-18T15:45:34.788Z,102822.25
2022-12-18T15:48:21.128Z,102822.69
2022-12-18T15:50:50.872Z,102831.50
2022-12-18T15:53:20.154Z,102829.13
2022-12-18T15:56:06.550Z,102832.63
2022-12-18T15:58:34.795Z,102828.91
2022-12-18T16:01:03.137Z,102830.50
2022-12-18T16:03:31.613Z,102825.81
2022-12-18T16:06:01.293Z,102829.22
2022-12-18T16:08:30.936Z,102834.22
2022-12-18T16:10:59.296Z,102842.16
2022-12-18T16:13:27.128Z,102844.31
2022-12-18T16:15:55.008Z,102848.34
2022-12-18T16:18:23.215Z,102846.91
2022-12-18T16:20:51.172Z,102853.59
2022-12-18T16:23:19.020Z,102857.88
2022-12-18T16:25:47.432Z,102855.72
2022-12-18T16:28:16.494Z,102867.59
2022-12-18T16:30:44.329Z,102874.91
2022-12-18T16:33:12.565Z,102876.53
2022-12-18T16:35:40.517Z,102878.78
2022-12-18T16:38:08.627Z,102883.25
2022-12-18T16:40:58.836Z,102877.56
2022-12-18T16:43:26.661Z,102881.97
2022-12-18T16:45:58.356Z,102881.31
2022-12-18T16:48:26.288Z,102880.53
2022-12-18T16:51:04.940Z,102883.84
2022-12-18T16:53:34.295Z,102888.69
2022-12-18T16:56:03.258Z,102891.22
2022-12-18T16:58:33.013Z,102902.62
2022-12-18T17:01:01.096Z,102903.03
2022-12-18T17:03:29.156Z,102902.44
2022-12-18T17:06:03.454Z,102905.16
2022-12-18T17:08:32.620Z,102909.50
2022-12-18T17:11:07.523Z,102895.22
2022-12-18T17:13:35.798Z,102899.00
2022-12-18T17:16:05.213Z,102902.47
2022-12-18T17:18:34.533Z,102900.00
2022-12-18T17:21:06.028Z,102909.38
2022-12-18T17:23:33.803Z,102906.03
2022-12-18T17:26:01.655Z,102903.47
2022-12-18T17:28:30.906Z,102912.09
2022-12-18T17:30:58.737Z,102911.06
2022-12-18T17:33:27.241Z,102915.34
2022-12-18T17:35:59.210Z,102919.25
2022-12-18T17:38:27.735Z,102923.59
2022-12-18T17:41:01.474Z,102923.06
2022-12-18T17:43:30.081Z,102919.28
2022-12-18T17:46:07.875Z,102920.09
2022-12-18T17:48:37.400Z,102917.87
2022-12-18T17:51:11.029Z,102931.84
2022-12-18T17:53:39.616Z,102937.00
2022-12-18T17:56:13.448Z,102943.75
2022-12-18T17:58:42.169Z,102942.94
2022-12-18T18:01:13.942Z,102939.56
2022-12-18T18:03:44.640Z,102937.28
2022-12-18T18:06:13.581Z,102947.22
2022-12-18T18:08:41.427Z,102953.47
2022-12-18T18:11:32.700Z,102944.25
2022-12-18T18:14:01.779Z,102954.81
2022-12-18T18:16:36.600Z,102946.94
2022-12-18T18:19:08.055Z,102939.25
2022-12-18T18:21:43.280Z,102938.16
2022-12-18T18:24:13.819Z,102943.00
2022-12-18T18:26:42.450Z,102949.47
2022-12-18T18:29:16.133Z,102949.91
2022-12-18T18:31:44.728Z,102955.84
2022-12-18T18:34:17.988Z,102947.88
2022-12-18T18:36:47.011Z,102936.78
2022-12-18T18:39:15.626Z,102940.03
2022-12-18T18:41:47.019Z,102940.91
2022-12-18T18:44:24.815Z,102926.66
2022-12-18T18:46:58.960Z,102933.47
2022-12-18T18:49:28.375Z,102937.31
2022-12-18T18:51:57.571Z,102941.50
2022-12-18T18:54:26.522Z,102933.38
2022-12-18T18:59:43.620Z,102941.50
2022-12-18T19:02:14.321Z,102946.97
2022-12-18T19:04:45.747Z,102949.53
2022-12-18T19:07:25.599Z,102950.06
2022-12-18T19:10:03.932Z,102944.00
2022-12-18T19:12:53.370Z,102942.13
2022-12-18T19:15:22.576Z,102937.78
2022-12-18T19:17:50.865Z,102942.66
2022-12-18T19:20:18.970Z,102945.81
2022-12-18T19:22:54.822Z,102949.56
2022-12-18T19:25:40.722Z,102947.00
2022-12-18T19:28:21.647Z,102945.13
2022-12-18T19:30:55.369Z,102957.84
2022-12-18T19:33:42.755Z,102957.44
2022-12-18T19:36:24.051Z,102953.22
2022-12-18T19:38:53.785Z,102945.09
2022-12-18T19:41:23.354Z,102938.09
2022-12-18T19:43:53.250Z,102941.19
2022-12-18T19:46:22.772Z,102941.19
2022-12-18T19:48:51.296Z,102942.97
2022-12-18T19:51:29.987Z,102942.16
2022-12-18T19:54:01.620Z,102947.69
2022-12-18T19:56:32.855Z,102957.56
2022-12-18T19:59:03.813Z,102970.16
2022-12-18T20:01:32.181Z,102977.06
2022-12-18T20:04:01.056Z,102975.44
2022-12-18T20:06:46.531Z,102978.69
2022-12-18T20:09:15.056Z,102980.56
2022-12-18T20:11:42.944Z,102986.37
2022-12-18T20:14:12.578Z,102985.44
2022-12-18T20:16:41.509Z,102986.66
2022-12-18T20:19:12.111Z,102978.13
2022-12-18T20:21:40.382Z,102981.38
2022-12-18T20:24:09.471Z,102990.97
2022-12-18T20:26:37.188Z,102988.94
2022-12-18T20:29:05.192Z,102989.59
2022-12-18T20:31:33.136Z,102988.34
2022-12-18T20:34:02.617Z,103001.62
2022-12-18T20:36:34.075Z,102999.56
2022-12-18T20:39:05.388Z,103001.34
2022-12-18T20:41:38.307Z,102999.13
2022-12-18T20:44:21.717Z,103001.66
2022-12-18T20:46:56.357Z,102994.78
2022-12-18T20:49:26.147Z,103000.81
2022-12-18T20:51:56.588Z,103005.47
2022-12-18T20:54:26.139Z,103000.75
2022-12-18T20:56:55.155Z,103016.41
2022-12-18T20:59:25.200Z,103008.72
2022-12-18T21:01:52.899Z,103022.25
2022-12-18T21:04:22.182Z,103018.72
2022-12-18T21:06:54.211Z,103027.09
2022-12-18T21:09:37.680Z,103034.56
2022-12-18T21:12:33.459Z,103036.87
2022-12-18T21:15:05.331Z,103043.19
2022-12-18T21:17:40.122Z,103037.66
2022-12-18T21:20:18.102Z,103032.00
2022-12-18T21:22:47.287Z,103040.66
2022-12-18T21:25:15.157Z,103043.28
2022-12-18T21:27:42.758Z,103044.59
2022-12-18T21:30:10.937Z,103048.41
2022-12-18T21:32:38.898Z,103053.37
2022-12-18T21:35:06.831Z,103055.53
2022-12-18T21:37:34.368Z,103067.63
2022-12-18T21:40:02.340Z,103061.31
2022-12-18T21:42:48.901Z,103060.16
2022-12-18T21:45:16.914Z,103056.63
2022-12-18T21:47:44.622Z,103054.47
2022-12-18T21:50:12.928Z,103059.09
2022-12-18T21:52:40.969Z,103055.41
2022-12-18T21:55:10.244Z,103059.88
2022-12-18T21:57:39.436Z,103060.37
2022-12-18T22:00:18.761Z,103051.72
2022-12-18T22:02:49.594Z,103052.53
2022-12-18T22:05:36.487Z,103055.19
2022-12-18T22:08:04.468Z,103060.91
2022-12-18T22:10:32.109Z,103053.69
2022-12-18T22:12:59.602Z,103057.78
2022-12-18T22:15:27.557Z,103054.78
2022-12-18T22:18:00.198Z,103054.13
2022-12-18T22:20:29.948Z,103048.00
2022-12-18T22:22:58.742Z,103058.41
2022-12-18T22:25:28.959Z,103050.63
2022-12-18T22:28:14.999Z,103040.66
2022-12-18T22:30:44.028Z,103042.00
2022-12-18T22:33:11.763Z,103040.56
2022-12-18T22:35:39.344Z,103045.25
2022-12-18T22:38:07.679Z,103032.91
2022-12-18T22:40:35.259Z,103030.28
2022-12-18T22:43:03.128Z,103027.56
2022-12-18T22:45:30.965Z,103030.28
2022-12-18T22:48:00.261Z,103030.28
2022-12-18T22:50:28.006Z,103031.19
2022-12-18T22:52:55.804Z,103038.50
2022-12-18T22:55:23.301Z,103039.84
2022-12-18T22:57:53.948Z,103042.31
2022-12-18T23:00:24.598Z,103040.44
2022-12-18T23:02:59.785Z,103040.19
2022-12-18T23:05:31.720Z,103037.06
2022-12-18T23:07:59.533Z,103032.09
2022-12-18T23:10:28.737Z,103027.50
2022-12-18T23:12:56.367Z,103026.81
2022-12-18T23:15:27.781Z,103025.41
2022-12-18T23:17:58.694Z,103034.75
2022-12-18T23:20:29.278Z,103025.12
2022-12-18T23:22:57.123Z,103018.22
2022-12-18T23:25:24.717Z,103030.47
2022-12-18T23:27:52.259Z,103032.69
2022-12-18T23:30:20.233Z,103037.69
2022-12-18T23:32:48.304Z,103039.87
2022-12-18T23:35:17.178Z,103048.31
2022-12-18T23:37:58.818Z,103046.91
2022-12-18T23:40:27.757Z,103039.16
2022-12-18T23:42:55.593Z,103043.87
2022-12-18T23:45:23.206Z,103045.38
2022-12-18T23:47:51.222Z,103041.34
2022-12-18T23:50:19.360Z,103037.34
2022-12-18T23:52:51.156Z,103041.31
2022-12-18T23:55:19.007Z,103039.22
2022-12-18T23:57:47.879Z,103040.06
